createdAt,value
2019-06-20T00:00:39.965Z,19.20
2019-06-20T00:03:08.761Z,19.20
2019-06-20T00:05:37.208Z,19.10
2019-06-20T00:08:06.032Z,19.10
2019-06-20T00:10:34.472Z,19.10
2019-06-20T00:15:31.365Z,19.00
2019-06-20T00:30:20.385Z,18.80
2019-06-20T00:32:49.591Z,18.70
2019-06-20T00:35:18.047Z,18.60
2019-06-20T00:37:46.798Z,18.50
2019-06-20T00:40:15.300Z,18.50
2019-06-20T00:45:13.216Z,18.40
2019-06-20T00:52:38.149Z,18.40
2019-06-20T00:55:08.215Z,18.40
2019-06-20T00:57:36.791Z,18.40
2019-06-20T01:00:10.025Z,18.40
2019-06-20T01:02:38.854Z,18.20
2019-06-20T01:05:07.623Z,18.20
2019-06-20T01:07:55.414Z,18.30
2019-06-20T01:10:23.917Z,18.30
2019-06-20T01:12:52.681Z,18.30
2019-06-20T01:15:21.244Z,18.30
2019-06-20T01:17:49.714Z,18.20
2019-06-20T01:20:18.642Z,18.10
2019-06-20T01:22:47.080Z,18.00
2019-06-20T01:25:15.894Z,18.10
2019-06-20T01:27:44.366Z,18.10
2019-06-20T01:30:13.288Z,18.10
2019-06-20T01:32:41.990Z,18.10
2019-06-20T01:35:10.827Z,18.20
2019-06-20T01:37:39.285Z,18.20
2019-06-20T01:40:08.243Z,18.20
2019-06-20T01:42:36.988Z,18.20
2019-06-20T01:45:08.075Z,18.20
2019-06-20T01:47:36.845Z,18.10
2019-06-20T01:50:06.888Z,18.10
2019-06-20T01:52:35.587Z,18.00
2019-06-20T01:55:05.161Z,18.00
2019-06-20T01:57:33.843Z,17.90
2019-06-20T02:00:02.413Z,17.90
2019-06-20T02:02:30.884Z,17.90
2019-06-20T02:04:59.316Z,17.70
2019-06-20T02:07:28.359Z,17.70
2019-06-20T02:09:56.891Z,17.70
2019-06-20T02:12:25.333Z,17.70
2019-06-20T02:14:53.760Z,17.60
2019-06-20T02:17:22.197Z,17.60
2019-06-20T02:19:50.615Z,17.50
2019-06-20T02:22:19.074Z,17.50
2019-06-20T02:24:47.770Z,17.30
2019-06-20T02:27:16.205Z,17.20
2019-06-20T02:29:44.669Z,17.10
2019-06-20T02:32:13.298Z,17.00
2019-06-20T02:35:01.069Z,17.00
2019-06-20T02:37:29.885Z,17.00
2019-06-20T02:39:58.338Z,17.10
2019-06-20T02:42:27.057Z,17.00
2019-06-20T02:54:48.840Z,17.10
2019-06-20T02:57:17.628Z,17.20
2019-06-20T02:59:46.056Z,17.10
2019-06-20T03:02:14.503Z,17.00
2019-06-20T03:04:45.654Z,17.00
2019-06-20T03:07:13.101Z,17.10
2019-06-20T03:09:41.871Z,17.20
2019-06-20T03:12:10.307Z,17.20
2019-06-20T03:14:45.340Z,17.10
2019-06-20T03:17:08.998Z,17.00
2019-06-20T03:19:37.433Z,17.00
2019-06-20T03:29:30.592Z,17.20
2019-06-20T03:31:59.030Z,17.20
2019-06-20T03:36:55.616Z,17.30
2019-06-20T03:41:52.182Z,17.30
2019-06-20T03:44:20.630Z,17.30
2019-06-20T03:46:49.064Z,17.20
2019-06-20T03:51:46.259Z,16.90
2019-06-20T03:56:43.427Z,16.80
2019-06-20T03:59:12.117Z,16.60
2019-06-20T04:01:40.915Z,16.60
2019-06-20T04:04:09.689Z,16.40
2019-06-20T04:06:38.504Z,16.40
2019-06-20T04:09:07.263Z,16.40
2019-06-20T04:11:36.070Z,16.30
2019-06-20T04:14:04.586Z,16.30
2019-06-20T04:16:33.012Z,16.20
2019-06-20T04:19:01.485Z,16.00
2019-06-20T04:28:54.231Z,15.50
2019-06-20T04:31:22.984Z,15.50
2019-06-20T04:33:51.424Z,15.40
2019-06-20T04:36:20.143Z,15.40
2019-06-20T04:41:16.966Z,15.40
2019-06-20T04:43:46.375Z,15.40
2019-06-20T04:46:19.599Z,15.40
2019-06-20T04:48:48.052Z,15.50
2019-06-20T04:51:16.784Z,15.50
2019-06-20T04:58:41.800Z,15.70
2019-06-20T05:01:10.263Z,15.70
2019-06-20T05:03:58.093Z,15.70
2019-06-20T05:06:26.805Z,15.80
2019-06-20T05:08:55.243Z,15.70
2019-06-20T05:11:23.969Z,15.70
2019-06-20T05:13:52.421Z,15.70
2019-06-20T05:18:49.217Z,15.70
2019-06-20T05:28:42.377Z,16.30
2019-06-20T05:31:10.839Z,16.50
2019-06-20T05:33:39.367Z,16.70
2019-06-20T05:36:07.864Z,16.70
2019-06-20T05:41:04.923Z,16.80
2019-06-20T05:43:33.370Z,17.00
2019-06-20T05:46:09.750Z,17.10
2019-06-20T05:48:32.099Z,17.30
2019-06-20T05:51:00.544Z,17.40
2019-06-20T05:53:28.978Z,17.50
2019-06-20T05:55:57.466Z,17.50
2019-06-20T06:00:54.087Z,17.70
2019-06-20T06:03:22.504Z,17.80
2019-06-20T06:05:50.943Z,18.00
2019-06-20T06:08:19.669Z,18.20
2019-06-20T06:10:48.139Z,18.40
2019-06-20T06:13:16.920Z,18.50
2019-06-20T06:15:45.372Z,18.50
2019-06-20T06:20:44.877Z,18.70
2019-06-20T06:23:13.507Z,18.70
2019-06-20T06:25:42.716Z,18.90
2019-06-20T06:28:12.550Z,19.00
2019-06-20T06:33:10.093Z,19.20
2019-06-20T06:35:38.621Z,19.20
2019-06-20T06:43:03.252Z,19.30
2019-06-20T06:48:00.160Z,19.40
2019-06-20T06:50:28.754Z,19.40
2019-06-20T06:52:57.226Z,19.40
2019-06-20T06:57:55.497Z,19.50
2019-06-20T07:00:24.414Z,19.50
2019-06-20T07:02:53.510Z,19.70
2019-06-20T07:05:22.015Z,19.80
2019-06-20T07:07:50.445Z,19.80
2019-06-20T07:10:21.067Z,20.00
2019-06-20T07:12:49.496Z,20.00
2019-06-20T07:15:18.389Z,20.10
2019-06-20T07:17:46.889Z,20.20
2019-06-20T07:20:15.656Z,20.20
2019-06-20T07:22:44.114Z,20.20
2019-06-20T07:25:13.428Z,20.30
2019-06-20T07:30:11.685Z,20.20
2019-06-20T07:32:40.132Z,20.20
2019-06-20T07:35:09.652Z,20.10
2019-06-20T07:37:38.110Z,20.00
2019-06-20T07:40:08.648Z,20.00
2019-06-20T07:42:37.507Z,20.00
2019-06-20T07:45:10.781Z,20.20
2019-06-20T07:47:40.441Z,20.40
2019-06-20T07:52:38.399Z,20.90
2019-06-20T07:55:08.866Z,21.00
2019-06-20T07:57:37.437Z,21.10
2019-06-20T08:00:11.188Z,21.30
2019-06-20T08:02:39.702Z,21.30
2019-06-20T08:05:08.880Z,21.30
2019-06-20T08:07:37.690Z,21.30
2019-06-20T08:10:11.740Z,21.40
2019-06-20T08:12:40.203Z,21.50
2019-06-20T08:15:14.905Z,21.50
2019-06-20T08:17:39.941Z,21.60
2019-06-20T08:20:10.484Z,21.60
2019-06-20T08:22:39.192Z,21.70
2019-06-20T08:25:08.186Z,21.80
2019-06-20T08:27:52.362Z,21.90
2019-06-20T08:30:26.369Z,22.00
2019-06-20T08:32:56.128Z,22.20
2019-06-20T08:35:27.594Z,22.30
2019-06-20T08:37:59.197Z,22.30
2019-06-20T08:40:30.170Z,22.50
2019-06-20T08:43:00.120Z,22.80
2019-06-20T08:45:31.888Z,22.80
2019-06-20T08:48:00.680Z,22.90
2019-06-20T08:50:29.490Z,22.90
2019-06-20T08:52:58.499Z,22.90
2019-06-20T08:55:28.232Z,22.90
2019-06-20T08:57:58.220Z,22.90
2019-06-20T09:00:28.973Z,22.90
2019-06-20T09:02:58.661Z,22.80
2019-06-20T09:05:30.445Z,22.80
2019-06-20T09:07:59.038Z,22.80
2019-06-20T09:10:37.215Z,22.90
2019-06-20T09:15:34.557Z,22.90
2019-06-20T09:18:03.043Z,23.00
2019-06-20T09:20:31.513Z,23.10
2019-06-20T09:25:29.554Z,23.10
2019-06-20T09:28:00.290Z,23.20
2019-06-20T09:30:29.470Z,23.30
2019-06-20T09:32:57.921Z,23.40
2019-06-20T09:35:26.499Z,23.30
2019-06-20T09:37:55.233Z,23.40
2019-06-20T09:42:52.951Z,23.50
2019-06-20T09:45:22.476Z,23.50
2019-06-20T09:47:52.161Z,23.40
2019-06-20T09:50:21.762Z,23.30
2019-06-20T09:52:51.590Z,23.20
2019-06-20T09:55:21.150Z,23.10
2019-06-20T09:57:50.799Z,23.20
2019-06-20T10:00:23.279Z,23.40
2019-06-20T10:02:53.959Z,23.60
2019-06-20T10:05:22.722Z,23.80
2019-06-20T10:07:52.274Z,23.80
2019-06-20T10:10:22.892Z,23.80
2019-06-20T10:12:51.817Z,23.90
2019-06-20T10:17:50.871Z,24.10
2019-06-20T10:20:20.369Z,23.90
2019-06-20T10:22:48.881Z,24.00
2019-06-20T10:27:46.541Z,24.10
2019-06-20T10:30:16.887Z,24.20
2019-06-20T10:32:46.747Z,24.30
2019-06-20T10:35:15.683Z,24.30
2019-06-20T10:37:45.557Z,24.40
2019-06-20T10:40:17.937Z,24.40
2019-06-20T10:42:46.437Z,24.30
2019-06-20T10:45:16.110Z,24.20
2019-06-20T10:47:45.762Z,24.00
2019-06-20T10:50:17.032Z,23.90
2019-06-20T10:52:45.464Z,23.90
2019-06-20T10:55:14.440Z,24.00
2019-06-20T10:57:43.371Z,24.00
2019-06-20T11:00:26.832Z,24.10
2019-06-20T11:05:14.671Z,24.20
2019-06-20T11:07:43.813Z,24.50
2019-06-20T11:10:13.344Z,24.50
2019-06-20T11:15:13.948Z,24.60
2019-06-20T11:22:39.814Z,24.60
2019-06-20T11:25:10.989Z,24.60
2019-06-20T11:27:40.488Z,24.60
2019-06-20T11:32:39.412Z,24.50
2019-06-20T11:35:08.394Z,24.50
2019-06-20T11:37:37.663Z,24.60
2019-06-20T11:40:09.194Z,24.60
2019-06-20T11:42:37.838Z,24.70
2019-06-20T11:45:07.598Z,24.80
2019-06-20T11:47:36.629Z,24.80
2019-06-20T11:50:06.949Z,24.90
2019-06-20T11:52:40.456Z,25.10
2019-06-20T11:55:08.719Z,25.10
2019-06-20T11:57:37.621Z,25.00
2019-06-20T12:00:07.633Z,25.00
2019-06-20T12:02:36.196Z,25.00
2019-06-20T12:05:12.578Z,24.90
2019-06-20T12:07:41.647Z,24.90
2019-06-20T12:10:11.612Z,24.50
2019-06-20T12:12:41.013Z,24.50
2019-06-20T12:15:10.456Z,24.30
2019-06-20T12:17:40.929Z,24.20
2019-06-20T12:20:09.820Z,24.10
2019-06-20T12:22:39.972Z,23.90
2019-06-20T12:25:09.483Z,23.80
2019-06-20T12:27:38.803Z,23.70
2019-06-20T12:30:09.988Z,23.70
2019-06-20T12:32:39.186Z,23.40
2019-06-20T12:35:08.927Z,23.30
2019-06-20T12:37:37.358Z,23.20
2019-06-20T12:40:08.519Z,23.10
2019-06-20T12:42:39.129Z,23.10
2019-06-20T12:45:08.353Z,23.10
2019-06-20T12:47:38.242Z,23.10
2019-06-20T12:50:11.149Z,23.10
2019-06-20T12:55:11.028Z,23.20
2019-06-20T13:00:11.441Z,23.20
2019-06-20T13:02:40.510Z,23.10
2019-06-20T13:05:10.912Z,23.10
2019-06-20T13:07:40.723Z,23.00
2019-06-20T13:10:10.566Z,22.90
2019-06-20T13:12:40.678Z,22.90
2019-06-20T13:15:10.466Z,22.90
2019-06-20T13:17:39.965Z,22.70
2019-06-20T13:22:39.515Z,22.60
2019-06-20T13:25:28.217Z,22.70
2019-06-20T13:27:56.903Z,22.70
2019-06-20T13:30:25.620Z,22.70
2019-06-20T13:32:54.090Z,22.70
2019-06-20T13:35:22.827Z,22.70
2019-06-20T13:37:51.454Z,22.80
2019-06-20T13:40:20.262Z,22.80
2019-06-20T13:42:50.371Z,22.80
2019-06-20T13:45:21.711Z,22.90
2019-06-20T13:47:50.552Z,22.90
2019-06-20T13:50:21.079Z,22.90
2019-06-20T13:52:51.199Z,22.90
2019-06-20T13:55:19.682Z,22.90
2019-06-20T13:57:49.194Z,22.90
2019-06-20T14:00:20.786Z,23.00
2019-06-20T14:02:51.158Z,23.10
2019-06-20T14:05:19.652Z,23.10
2019-06-20T14:07:53.291Z,23.20
2019-06-20T14:10:24.093Z,23.40
2019-06-20T14:12:52.625Z,23.60
2019-06-20T14:15:21.440Z,23.60
2019-06-20T14:17:50.172Z,23.70
2019-06-20T14:20:20.834Z,23.60
2019-06-20T14:22:49.684Z,23.60
2019-06-20T14:25:19.958Z,23.30
2019-06-20T14:27:49.194Z,23.20
2019-06-20T14:30:19.034Z,23.30
2019-06-20T14:32:49.214Z,23.20
2019-06-20T14:35:19.251Z,23.30
2019-06-20T14:37:49.222Z,23.40
2019-06-20T14:40:18.679Z,23.60
2019-06-20T14:42:47.915Z,23.70
2019-06-20T14:45:18.582Z,23.60
2019-06-20T14:47:47.071Z,23.60
2019-06-20T14:50:16.322Z,23.60
2019-06-20T14:52:47.680Z,23.60
2019-06-20T14:55:15.231Z,23.80
2019-06-20T14:57:44.880Z,23.80
2019-06-20T15:00:14.922Z,23.70
2019-06-20T15:02:45.119Z,23.70
2019-06-20T15:05:18.218Z,23.80
2019-06-20T15:07:48.919Z,23.80
2019-06-20T15:10:17.703Z,23.70
2019-06-20T15:12:48.291Z,23.50
2019-06-20T15:15:17.287Z,23.30
2019-06-20T15:17:48.818Z,23.10
2019-06-20T15:20:16.739Z,23.00
2019-06-20T15:22:46.775Z,22.90
2019-06-20T15:25:15.860Z,22.90
2019-06-20T15:27:47.216Z,23.00
2019-06-20T15:30:15.216Z,23.20
2019-06-20T15:32:55.714Z,23.40
2019-06-20T15:35:13.964Z,23.40
2019-06-20T15:37:42.409Z,23.50
2019-06-20T15:40:11.525Z,23.40
2019-06-20T15:42:40.000Z,23.30
2019-06-20T15:45:09.478Z,23.30
2019-06-20T15:47:38.561Z,23.20
2019-06-20T15:50:10.865Z,23.20
2019-06-20T15:52:40.580Z,23.10
2019-06-20T15:55:10.208Z,23.10
2019-06-20T15:57:38.915Z,23.00
2019-06-20T16:00:09.965Z,22.90
2019-06-20T16:02:38.429Z,22.90
2019-06-20T16:05:10.602Z,22.80
2019-06-20T16:07:39.053Z,22.70
2019-06-20T16:10:09.851Z,22.50
2019-06-20T16:12:38.465Z,22.40
2019-06-20T16:15:08.364Z,22.40
2019-06-20T16:17:36.824Z,22.30
2019-06-20T16:20:06.737Z,22.20
2019-06-20T16:22:35.261Z,22.20
2019-06-20T16:25:05.441Z,22.20
2019-06-20T16:27:34.132Z,22.30
2019-06-20T16:30:03.224Z,22.50
2019-06-20T16:32:31.717Z,22.70
2019-06-20T16:35:00.408Z,22.80
2019-06-20T16:37:29.098Z,22.80
2019-06-20T16:39:57.801Z,22.90
2019-06-20T16:42:26.236Z,23.20
2019-06-20T16:44:54.701Z,23.40
2019-06-20T16:47:23.191Z,23.40
2019-06-20T16:49:51.892Z,23.40
2019-06-20T16:52:20.324Z,23.50
2019-06-20T16:54:48.776Z,23.50
2019-06-20T16:57:17.307Z,23.60
2019-06-20T16:59:45.795Z,23.60
2019-06-20T17:02:14.232Z,23.50
2019-06-20T17:04:42.925Z,23.20
2019-06-20T17:07:11.358Z,23.00
2019-06-20T17:09:39.806Z,22.90
2019-06-20T17:12:11.118Z,22.70
2019-06-20T17:14:38.399Z,22.60
2019-06-20T17:17:06.851Z,22.40
2019-06-20T17:19:35.386Z,22.30
2019-06-20T17:22:03.834Z,22.20
2019-06-20T17:24:32.537Z,22.10
2019-06-20T17:27:01.041Z,22.10
2019-06-20T17:29:29.523Z,22.10
2019-06-20T17:31:58.200Z,22.00
2019-06-20T17:34:26.644Z,21.90
2019-06-20T17:36:55.143Z,21.90
2019-06-20T17:39:23.843Z,21.90
2019-06-20T17:41:55.553Z,21.90
2019-06-20T17:44:22.685Z,21.90
2019-06-20T17:46:51.191Z,21.90
2019-06-20T17:49:19.646Z,21.80
2019-06-20T17:51:48.080Z,21.90
2019-06-20T17:54:16.771Z,21.80
2019-06-20T17:57:04.873Z,21.90
2019-06-20T17:59:33.317Z,21.90
2019-06-20T18:02:01.743Z,21.90
2019-06-20T18:04:30.210Z,22.00
2019-06-20T18:06:58.896Z,22.10
2019-06-20T18:09:27.595Z,22.00
2019-06-20T18:11:56.371Z,21.90
2019-06-20T18:14:24.854Z,21.90
2019-06-20T18:16:53.535Z,21.80
2019-06-20T18:19:22.005Z,21.70
2019-06-20T18:21:50.498Z,21.70
2019-06-20T18:24:19.244Z,21.70
2019-06-20T18:26:47.990Z,21.70
2019-06-20T18:29:16.687Z,21.60
2019-06-20T18:31:45.127Z,21.50
2019-06-20T18:34:28.920Z,21.50
2019-06-20T18:36:44.238Z,21.40
2019-06-20T18:39:12.714Z,21.40
2019-06-20T18:41:41.144Z,21.20
2019-06-20T18:44:09.664Z,21.20
2019-06-20T18:46:38.419Z,21.20
2019-06-20T18:49:06.907Z,21.10
2019-06-20T18:51:35.364Z,21.00
2019-06-20T18:54:03.879Z,21.00
2019-06-20T18:56:32.335Z,20.90
2019-06-20T18:59:00.815Z,20.90
2019-06-20T19:01:29.357Z,20.80
2019-06-20T19:03:57.978Z,20.80
2019-06-20T19:06:35.437Z,20.70
2019-06-20T19:08:56.731Z,20.50
2019-06-20T19:11:25.436Z,20.50
2019-06-20T19:13:53.948Z,20.40
2019-06-20T19:16:22.660Z,20.30
2019-06-20T19:18:51.461Z,20.30
2019-06-20T19:21:20.031Z,20.30
2019-06-20T19:23:48.481Z,20.30
2019-06-20T19:26:17.179Z,20.30
2019-06-20T19:28:45.860Z,20.30
2019-06-20T19:31:14.305Z,20.20
2019-06-20T19:33:42.985Z,20.20
2019-06-20T19:36:11.508Z,17.90
2019-06-20T19:38:40.008Z,20.00
2019-06-20T19:41:08.765Z,20.00
2019-06-20T19:43:37.185Z,20.00
2019-06-20T19:46:05.812Z,19.90
2019-06-20T19:48:36.719Z,19.90
2019-06-20T19:51:04.930Z,19.80
2019-06-20T19:53:33.464Z,19.80
2019-06-20T19:56:02.342Z,19.70
2019-06-20T19:58:31.033Z,19.70
2019-06-20T20:00:59.497Z,19.70
2019-06-20T20:03:28.014Z,19.60
2019-06-20T20:05:58.447Z,19.40
2019-06-20T20:08:27.448Z,19.20
2019-06-20T20:10:55.895Z,19.10
2019-06-20T20:13:24.325Z,18.90
2019-06-20T20:15:52.764Z,18.80
2019-06-20T20:18:21.219Z,18.70
2019-06-20T20:20:50.058Z,18.70
2019-06-20T20:23:18.920Z,18.70
2019-06-20T20:25:48.114Z,18.70
2019-06-20T20:28:16.543Z,18.70
2019-06-20T20:30:45.333Z,18.60
2019-06-20T20:33:13.786Z,18.50
2019-06-20T20:35:42.240Z,18.30
2019-06-20T20:38:10.767Z,18.10
2019-06-20T20:40:39.657Z,18.00
2019-06-20T20:43:08.158Z,17.90
2019-06-20T20:45:36.595Z,17.90
2019-06-20T20:48:05.676Z,17.80
2019-06-20T20:50:34.472Z,17.80
2019-06-20T20:53:03.194Z,17.80
2019-06-20T20:55:31.696Z,17.80
2019-06-20T20:58:00.131Z,17.70
2019-06-20T21:00:53.075Z,17.70
2019-06-20T21:03:21.559Z,17.60
2019-06-20T21:05:51.665Z,17.50
2019-06-20T21:08:20.187Z,17.40
2019-06-20T21:10:48.895Z,17.40
2019-06-20T21:13:17.359Z,17.30
2019-06-20T21:15:45.848Z,17.30
2019-06-20T21:18:14.298Z,17.30
2019-06-20T21:20:42.965Z,17.30
2019-06-20T21:23:11.468Z,17.30
2019-06-20T21:25:40.005Z,17.30
2019-06-20T21:28:08.636Z,17.30
2019-06-20T21:30:37.405Z,17.30
2019-06-20T21:33:05.847Z,17.30
2019-06-20T21:35:34.285Z,17.30
2019-06-20T21:38:02.744Z,17.30
2019-06-20T21:40:31.181Z,17.40
2019-06-20T21:42:59.621Z,17.50
2019-06-20T21:45:28.076Z,17.50
2019-06-20T21:47:56.772Z,17.60
2019-06-20T21:50:25.195Z,17.70
2019-06-20T21:52:53.665Z,17.70
2019-06-20T21:55:22.116Z,17.80
2019-06-20T21:57:50.595Z,17.80
2019-06-20T22:00:26.624Z,17.80
2019-06-20T22:02:55.076Z,17.90
2019-06-20T22:05:23.576Z,17.90
2019-06-20T22:07:52.413Z,17.90
2019-06-20T22:10:21.511Z,18.00
2019-06-20T22:12:49.944Z,18.00
2019-06-20T22:15:18.741Z,17.90
2019-06-20T22:17:47.286Z,17.80
2019-06-20T22:20:16.460Z,17.70
2019-06-20T22:22:44.918Z,17.60
2019-06-20T22:25:13.683Z,17.50
2019-06-20T22:27:42.404Z,17.40
2019-06-20T22:30:12.296Z,17.40
2019-06-20T22:32:40.958Z,17.40
2019-06-20T22:35:10.040Z,17.50
2019-06-20T22:37:38.789Z,17.50
2019-06-20T22:40:08.772Z,17.60
2019-06-20T22:42:37.565Z,17.70
2019-06-20T22:45:07.639Z,17.70
2019-06-20T22:47:36.470Z,17.80
2019-06-20T22:50:07.153Z,17.80
2019-06-20T22:52:35.599Z,17.80
2019-06-20T22:55:07.616Z,17.80
2019-06-20T22:57:36.315Z,17.80
2019-06-20T23:00:09.223Z,17.80
2019-06-20T23:02:37.720Z,17.70
2019-06-20T23:05:07.673Z,17.70
2019-06-20T23:07:36.356Z,17.60
2019-06-20T23:10:10.780Z,17.60
2019-06-20T23:12:38.531Z,17.50
2019-06-20T23:15:08.872Z,17.50
2019-06-20T23:17:37.576Z,17.40
2019-06-20T23:20:07.370Z,17.40
2019-06-20T23:22:35.788Z,17.40
2019-06-20T23:25:09.122Z,17.40
2019-06-20T23:27:37.806Z,17.40
2019-06-20T23:30:08.365Z,17.50
2019-06-20T23:32:37.086Z,17.60
2019-06-20T23:35:07.236Z,17.60
2019-06-20T23:37:35.743Z,17.60
2019-06-20T23:40:08.315Z,17.70
2019-06-20T23:42:36.752Z,17.70
2019-06-20T23:45:09.071Z,17.60
2019-06-20T23:47:37.580Z,17.60
2019-06-20T23:50:09.495Z,17.60
2019-06-20T23:52:39.832Z,17.70
2019-06-20T23:55:08.516Z,17.60
2019-06-20T23:57:36.942Z,17.60
